sensor_id;sensor_type;location;lat;lon;timestamp;P1;durP1;ratioP1;P2;durP2;ratioP2
2257;SDS011;1136;51.574;7.706;2023-07-29T00:02:27;5.00;;;4.70;;
2257;SDS011;1136;51.574;7.706;2023-07-29T00:05:38;7.80;;;5.70;;
2257;SDS011;1136;51.574;7.706;2023-07-29T00:08:45;4.73;;;4.33;;
2257;SDS011;1136;51.574;7.706;2023-07-29T00:11:53;4.47;;;4.23;;
2257;SDS011;1136;51.574;7.706;2023-07-29T00:15:00;5.23;;;4.80;;
2257;SDS011;1136;51.574;7.706;2023-07-29T00:18:07;5.97;;;5.57;;
2257;SDS011;1136;51.574;7.706;2023-07-29T00:21:14;5.73;;;4.80;;
2257;SDS011;1136;51.574;7.706;2023-07-29T00:24:22;4.67;;;4.37;;
2257;SDS011;1136;51.574;7.706;2023-07-29T00:27:29;5.50;;;5.10;;
2257;SDS011;1136;51.574;7.706;2023-07-29T00:30:36;5.20;;;4.90;;
2257;SDS011;1136;51.574;7.706;2023-07-29T00:33:43;4.93;;;4.53;;
2257;SDS011;1136;51.574;7.706;2023-07-29T00:36:50;4.57;;;4.17;;
2257;SDS011;1136;51.574;7.706;2023-07-29T00:39:58;5.03;;;4.73;;
2257;SDS011;1136;51.574;7.706;2023-07-29T00:43:05;5.13;;;4.73;;
2257;SDS011;1136;51.574;7.706;2023-07-29T00:46:12;5.43;;;5.13;;
2257;SDS011;1136;51.574;7.706;2023-07-29T00:49:20;5.63;;;5.23;;
2257;SDS011;1136;51.574;7.706;2023-07-29T00:52:28;5.00;;;4.47;;
2257;SDS011;1136;51.574;7.706;2023-07-29T00:55:35;4.47;;;4.17;;
2257;SDS011;1136;51.574;7.706;2023-07-29T00:58:44;5.40;;;5.00;;
2257;SDS011;1136;51.574;7.706;2023-07-29T01:01:51;4.83;;;4.50;;
2257;SDS011;1136;51.574;7.706;2023-07-29T01:04:58;5.00;;;4.70;;
2257;SDS011;1136;51.574;7.706;2023-07-29T01:08:10;4.60;;;4.40;;
2257;SDS011;1136;51.574;7.706;2023-07-29T01:18:16;5.30;;;4.93;;
2257;SDS011;1136;51.574;7.706;2023-07-29T01:21:30;5.30;;;4.90;;
2257;SDS011;1136;51.574;7.706;2023-07-29T01:24:38;4.80;;;4.50;;
2257;SDS011;1136;51.574;7.706;2023-07-29T01:27:46;4.77;;;4.47;;
2257;SDS011;1136;51.574;7.706;2023-07-29T01:31:02;4.43;;;4.10;;
2257;SDS011;1136;51.574;7.706;2023-07-29T01:34:26;4.30;;;4.03;;
2257;SDS011;1136;51.574;7.706;2023-07-29T01:37:35;4.53;;;4.33;;
2257;SDS011;1136;51.574;7.706;2023-07-29T01:40:44;4.67;;;4.47;;
2257;SDS011;1136;51.574;7.706;2023-07-29T01:43:52;4.77;;;4.40;;
2257;SDS011;1136;51.574;7.706;2023-07-29T01:46:59;5.53;;;5.13;;
2257;SDS011;1136;51.574;7.706;2023-07-29T01:50:07;4.80;;;4.40;;
2257;SDS011;1136;51.574;7.706;2023-07-29T01:53:15;4.87;;;4.57;;
2257;SDS011;1136;51.574;7.706;2023-07-29T01:56:22;5.17;;;4.87;;
2257;SDS011;1136;51.574;7.706;2023-07-29T01:59:29;4.43;;;4.23;;
2257;SDS011;1136;51.574;7.706;2023-07-29T02:02:36;4.83;;;4.53;;
2257;SDS011;1136;51.574;7.706;2023-07-29T02:05:44;4.13;;;3.83;;
2257;SDS011;1136;51.574;7.706;2023-07-29T02:08:52;4.73;;;4.43;;
2257;SDS011;1136;51.574;7.706;2023-07-29T02:11:59;4.00;;;3.80;;
2257;SDS011;1136;51.574;7.706;2023-07-29T02:15:07;4.73;;;4.40;;
2257;SDS011;1136;51.574;7.706;2023-07-29T02:18:14;4.43;;;4.13;;
2257;SDS011;1136;51.574;7.706;2023-07-29T02:21:22;4.50;;;4.20;;
2257;SDS011;1136;51.574;7.706;2023-07-29T02:24:29;4.57;;;3.83;;
2257;SDS011;1136;51.574;7.706;2023-07-29T02:27:36;4.10;;;3.80;;
2257;SDS011;1136;51.574;7.706;2023-07-29T02:30:44;4.27;;;3.90;;
2257;SDS011;1136;51.574;7.706;2023-07-29T02:33:52;4.23;;;4.00;;
2257;SDS011;1136;51.574;7.706;2023-07-29T02:36:59;4.70;;;4.40;;
2257;SDS011;1136;51.574;7.706;2023-07-29T02:40:06;4.30;;;4.10;;
2257;SDS011;1136;51.574;7.706;2023-07-29T02:43:14;4.83;;;4.43;;
2257;SDS011;1136;51.574;7.706;2023-07-29T02:46:21;4.57;;;4.27;;
2257;SDS011;1136;51.574;7.706;2023-07-29T02:49:29;3.20;;;3.00;;
2257;SDS011;1136;51.574;7.706;2023-07-29T02:52:36;3.73;;;3.53;;
2257;SDS011;1136;51.574;7.706;2023-07-29T02:55:44;4.10;;;3.80;;
2257;SDS011;1136;51.574;7.706;2023-07-29T02:58:51;4.27;;;3.97;;
2257;SDS011;1136;51.574;7.706;2023-07-29T03:01:58;4.43;;;4.13;;
2257;SDS011;1136;51.574;7.706;2023-07-29T03:05:06;3.90;;;3.60;;
2257;SDS011;1136;51.574;7.706;2023-07-29T03:08:13;4.20;;;3.80;;
2257;SDS011;1136;51.574;7.706;2023-07-29T03:11:20;3.77;;;3.57;;
2257;SDS011;1136;51.574;7.706;2023-07-29T03:14:28;4.67;;;4.47;;
2257;SDS011;1136;51.574;7.706;2023-07-29T03:17:35;4.47;;;4.20;;
2257;SDS011;1136;51.574;7.706;2023-07-29T03:20:42;3.53;;;3.23;;
2257;SDS011;1136;51.574;7.706;2023-07-29T03:23:49;4.40;;;4.00;;
2257;SDS011;1136;51.574;7.706;2023-07-29T03:26:57;4.13;;;3.73;;
2257;SDS011;1136;51.574;7.706;2023-07-29T03:30:04;3.90;;;3.67;;
2257;SDS011;1136;51.574;7.706;2023-07-29T03:33:12;4.43;;;4.10;;
2257;SDS011;1136;51.574;7.706;2023-07-29T03:36:19;5.43;;;4.93;;
2257;SDS011;1136;51.574;7.706;2023-07-29T03:39:28;5.07;;;4.60;;
2257;SDS011;1136;51.574;7.706;2023-07-29T03:42:35;6.20;;;5.73;;
2257;SDS011;1136;51.574;7.706;2023-07-29T03:45:43;6.47;;;5.93;;
2257;SDS011;1136;51.574;7.706;2023-07-29T03:48:50;5.43;;;4.93;;
2257;SDS011;1136;51.574;7.706;2023-07-29T03:51:57;6.73;;;5.13;;
2257;SDS011;1136;51.574;7.706;2023-07-29T03:55:04;5.33;;;4.90;;
2257;SDS011;1136;51.574;7.706;2023-07-29T03:58:12;5.00;;;4.70;;
2257;SDS011;1136;51.574;7.706;2023-07-29T04:01:19;4.13;;;3.93;;
2257;SDS011;1136;51.574;7.706;2023-07-29T04:04:27;4.33;;;4.07;;
2257;SDS011;1136;51.574;7.706;2023-07-29T04:07:37;4.77;;;4.37;;
2257;SDS011;1136;51.574;7.706;2023-07-29T04:10:44;4.40;;;4.00;;
2257;SDS011;1136;51.574;7.706;2023-07-29T04:13:51;5.33;;;4.80;;
2257;SDS011;1136;51.574;7.706;2023-07-29T04:16:59;4.80;;;4.40;;
2257;SDS011;1136;51.574;7.706;2023-07-29T04:20:06;5.27;;;4.77;;
2257;SDS011;1136;51.574;7.706;2023-07-29T04:23:14;4.43;;;4.23;;
2257;SDS011;1136;51.574;7.706;2023-07-29T04:26:21;4.50;;;4.03;;
2257;SDS011;1136;51.574;7.706;2023-07-29T04:29:29;6.13;;;4.90;;
2257;SDS011;1136;51.574;7.706;2023-07-29T04:32:36;7.63;;;4.97;;
2257;SDS011;1136;51.574;7.706;2023-07-29T04:35:44;5.93;;;5.43;;
2257;SDS011;1136;51.574;7.706;2023-07-29T04:38:51;6.27;;;5.50;;
2257;SDS011;1136;51.574;7.706;2023-07-29T04:41:59;16.93;;;6.10;;
2257;SDS011;1136;51.574;7.706;2023-07-29T04:45:07;10.33;;;6.47;;
2257;SDS011;1136;51.574;7.706;2023-07-29T04:48:15;6.43;;;5.93;;
2257;SDS011;1136;51.574;7.706;2023-07-29T04:51:22;5.50;;;5.10;;
2257;SDS011;1136;51.574;7.706;2023-07-29T04:54:30;6.97;;;6.30;;
2257;SDS011;1136;51.574;7.706;2023-07-29T04:57:37;6.90;;;6.23;;
2257;SDS011;1136;51.574;7.706;2023-07-29T05:00:46;6.37;;;5.73;;
2257;SDS011;1136;51.574;7.706;2023-07-29T05:03:54;5.70;;;5.20;;
2257;SDS011;1136;51.574;7.706;2023-07-29T05:07:01;6.17;;;5.40;;
2257;SDS011;1136;51.574;7.706;2023-07-29T05:10:08;6.07;;;5.57;;
2257;SDS011;1136;51.574;7.706;2023-07-29T05:13:16;6.10;;;4.87;;
2257;SDS011;1136;51.574;7.706;2023-07-29T05:16:23;6.53;;;6.00;;
2257;SDS011;1136;51.574;7.706;2023-07-29T05:19:30;6.70;;;6.10;;
2257;SDS011;1136;51.574;7.706;2023-07-29T05:22:38;7.10;;;6.60;;
2257;SDS011;1136;51.574;7.706;2023-07-29T05:25:45;7.73;;;7.23;;
2257;SDS011;1136;51.574;7.706;2023-07-29T05:28:52;7.47;;;6.50;;
2257;SDS011;1136;51.574;7.706;2023-07-29T05:31:59;8.77;;;7.67;;
2257;SDS011;1136;51.574;7.706;2023-07-29T05:35:07;8.03;;;7.33;;
2257;SDS011;1136;51.574;7.706;2023-07-29T05:38:14;8.60;;;7.90;;
2257;SDS011;1136;51.574;7.706;2023-07-29T05:41:21;8.20;;;7.70;;
2257;SDS011;1136;51.574;7.706;2023-07-29T05:44:29;8.10;;;7.30;;
2257;SDS011;1136;51.574;7.706;2023-07-29T05:47:39;8.40;;;7.80;;
2257;SDS011;1136;51.574;7.706;2023-07-29T05:50:46;8.20;;;7.50;;
2257;SDS011;1136;51.574;7.706;2023-07-29T05:53:53;9.23;;;8.47;;
2257;SDS011;1136;51.574;7.706;2023-07-29T05:57:01;8.67;;;7.97;;
2257;SDS011;1136;51.574;7.706;2023-07-29T06:00:08;7.60;;;7.00;;
2257;SDS011;1136;51.574;7.706;2023-07-29T06:03:15;8.40;;;7.70;;
2257;SDS011;1136;51.574;7.706;2023-07-29T06:06:23;8.73;;;8.03;;
2257;SDS011;1136;51.574;7.706;2023-07-29T06:09:30;8.20;;;7.70;;
2257;SDS011;1136;51.574;7.706;2023-07-29T06:12:37;10.73;;;8.40;;
2257;SDS011;1136;51.574;7.706;2023-07-29T06:15:45;8.53;;;7.83;;
2257;SDS011;1136;51.574;7.706;2023-07-29T06:18:52;8.07;;;7.47;;
2257;SDS011;1136;51.574;7.706;2023-07-29T06:21:59;7.80;;;7.10;;
2257;SDS011;1136;51.574;7.706;2023-07-29T06:25:08;8.20;;;7.70;;
2257;SDS011;1136;51.574;7.706;2023-07-29T06:28:16;10.00;;;9.03;;
2257;SDS011;1136;51.574;7.706;2023-07-29T06:31:23;8.90;;;8.20;;
2257;SDS011;1136;51.574;7.706;2023-07-29T06:34:31;9.03;;;8.23;;
2257;SDS011;1136;51.574;7.706;2023-07-29T06:37:38;7.83;;;7.27;;
2257;SDS011;1136;51.574;7.706;2023-07-29T06:40:45;7.97;;;7.40;;
2257;SDS011;1136;51.574;7.706;2023-07-29T06:43:53;8.00;;;7.40;;
2257;SDS011;1136;51.574;7.706;2023-07-29T06:47:00;7.40;;;6.90;;
2257;SDS011;1136;51.574;7.706;2023-07-29T06:50:07;8.13;;;7.53;;
2257;SDS011;1136;51.574;7.706;2023-07-29T06:53:15;8.33;;;7.33;;
2257;SDS011;1136;51.574;7.706;2023-07-29T06:56:22;7.83;;;7.33;;
2257;SDS011;1136;51.574;7.706;2023-07-29T06:59:30;8.43;;;7.80;;
2257;SDS011;1136;51.574;7.706;2023-07-29T07:02:37;8.40;;;7.60;;
2257;SDS011;1136;51.574;7.706;2023-07-29T07:05:44;11.17;;;8.30;;
2257;SDS011;1136;51.574;7.706;2023-07-29T07:08:52;8.50;;;7.90;;
2257;SDS011;1136;51.574;7.706;2023-07-29T07:11:59;8.30;;;7.50;;
2257;SDS011;1136;51.574;7.706;2023-07-29T07:15:07;7.77;;;6.60;;
2257;SDS011;1136;51.574;7.706;2023-07-29T07:18:14;7.07;;;6.60;;
2257;SDS011;1136;51.574;7.706;2023-07-29T07:21:22;5.80;;;5.37;;
2257;SDS011;1136;51.574;7.706;2023-07-29T07:24:29;5.13;;;4.73;;
2257;SDS011;1136;51.574;7.706;2023-07-29T07:27:36;8.23;;;4.83;;
2257;SDS011;1136;51.574;7.706;2023-07-29T07:30:43;5.70;;;4.30;;
2257;SDS011;1136;51.574;7.706;2023-07-29T07:33:51;4.10;;;3.80;;
2257;SDS011;1136;51.574;7.706;2023-07-29T07:36:58;4.07;;;3.80;;
2257;SDS011;1136;51.574;7.706;2023-07-29T07:40:06;5.10;;;4.37;;
2257;SDS011;1136;51.574;7.706;2023-07-29T07:43:13;4.87;;;4.47;;
2257;SDS011;1136;51.574;7.706;2023-07-29T07:46:21;4.47;;;3.90;;
2257;SDS011;1136;51.574;7.706;2023-07-29T07:49:28;3.93;;;3.53;;
2257;SDS011;1136;51.574;7.706;2023-07-29T07:52:35;2.90;;;2.70;;
2257;SDS011;1136;51.574;7.706;2023-07-29T07:55:43;2.67;;;2.47;;
2257;SDS011;1136;51.574;7.706;2023-07-29T07:58:50;2.83;;;2.63;;
2257;SDS011;1136;51.574;7.706;2023-07-29T08:01:57;2.93;;;2.63;;
2257;SDS011;1136;51.574;7.706;2023-07-29T08:05:04;2.33;;;2.13;;
2257;SDS011;1136;51.574;7.706;2023-07-29T08:08:12;3.37;;;2.60;;
2257;SDS011;1136;51.574;7.706;2023-07-29T08:11:19;2.53;;;2.33;;
2257;SDS011;1136;51.574;7.706;2023-07-29T08:14:26;2.40;;;2.20;;
2257;SDS011;1136;51.574;7.706;2023-07-29T08:17:34;1.80;;;1.70;;
2257;SDS011;1136;51.574;7.706;2023-07-29T08:20:41;2.50;;;1.60;;
2257;SDS011;1136;51.574;7.706;2023-07-29T08:23:58;1.70;;;1.60;;
2257;SDS011;1136;51.574;7.706;2023-07-29T08:27:05;1.60;;;1.50;;
2257;SDS011;1136;51.574;7.706;2023-07-29T08:30:13;1.50;;;1.40;;
2257;SDS011;1136;51.574;7.706;2023-07-29T08:33:21;4.43;;;2.10;;
2257;SDS011;1136;51.574;7.706;2023-07-29T08:36:28;1.80;;;1.70;;
2257;SDS011;1136;51.574;7.706;2023-07-29T08:39:35;1.70;;;1.60;;
2257;SDS011;1136;51.574;7.706;2023-07-29T08:42:43;2.00;;;1.80;;
2257;SDS011;1136;51.574;7.706;2023-07-29T08:45:52;2.10;;;1.90;;
2257;SDS011;1136;51.574;7.706;2023-07-29T08:48:59;2.90;;;2.70;;
2257;SDS011;1136;51.574;7.706;2023-07-29T08:52:08;3.80;;;1.87;;
2257;SDS011;1136;51.574;7.706;2023-07-29T08:55:16;2.60;;;1.67;;
2257;SDS011;1136;51.574;7.706;2023-07-29T08:58:23;1.40;;;1.30;;
2257;SDS011;1136;51.574;7.706;2023-07-29T09:01:31;2.63;;;1.90;;
2257;SDS011;1136;51.574;7.706;2023-07-29T09:04:39;1.90;;;1.80;;
2257;SDS011;1136;51.574;7.706;2023-07-29T09:07:46;2.10;;;1.83;;
2257;SDS011;1136;51.574;7.706;2023-07-29T09:10:54;1.60;;;1.50;;
2257;SDS011;1136;51.574;7.706;2023-07-29T09:14:04;1.80;;;1.70;;
2257;SDS011;1136;51.574;7.706;2023-07-29T09:17:12;1.80;;;1.70;;
2257;SDS011;1136;51.574;7.706;2023-07-29T09:20:26;3.77;;;3.47;;
2257;SDS011;1136;51.574;7.706;2023-07-29T09:23:40;2.33;;;2.23;;
2257;SDS011;1136;51.574;7.706;2023-07-29T09:26:49;3.00;;;2.80;;
2257;SDS011;1136;51.574;7.706;2023-07-29T09:29:58;3.17;;;2.70;;
2257;SDS011;1136;51.574;7.706;2023-07-29T09:33:05;2.23;;;2.13;;
2257;SDS011;1136;51.574;7.706;2023-07-29T09:36:13;2.30;;;2.10;;
2257;SDS011;1136;51.574;7.706;2023-07-29T09:39:22;2.00;;;1.90;;
2257;SDS011;1136;51.574;7.706;2023-07-29T09:42:30;2.13;;;2.03;;
2257;SDS011;1136;51.574;7.706;2023-07-29T09:45:37;2.20;;;2.10;;
2257;SDS011;1136;51.574;7.706;2023-07-29T09:48:45;2.00;;;1.90;;
2257;SDS011;1136;51.574;7.706;2023-07-29T09:51:55;1.97;;;1.83;;
2257;SDS011;1136;51.574;7.706;2023-07-29T09:55:03;1.70;;;1.60;;
2257;SDS011;1136;51.574;7.706;2023-07-29T09:58:10;1.73;;;1.63;;
2257;SDS011;1136;51.574;7.706;2023-07-29T10:01:18;1.63;;;1.53;;
2257;SDS011;1136;51.574;7.706;2023-07-29T10:04:25;2.17;;;1.97;;
2257;SDS011;1136;51.574;7.706;2023-07-29T10:07:33;1.90;;;1.70;;
2257;SDS011;1136;51.574;7.706;2023-07-29T10:10:42;1.70;;;1.60;;
2257;SDS011;1136;51.574;7.706;2023-07-29T10:13:49;1.73;;;1.63;;
2257;SDS011;1136;51.574;7.706;2023-07-29T10:17:14;2.07;;;1.73;;
2257;SDS011;1136;51.574;7.706;2023-07-29T10:20:22;1.87;;;1.77;;
2257;SDS011;1136;51.574;7.706;2023-07-29T10:23:32;2.10;;;1.90;;
2257;SDS011;1136;51.574;7.706;2023-07-29T10:26:44;2.93;;;2.73;;
2257;SDS011;1136;51.574;7.706;2023-07-29T10:29:54;1.97;;;1.87;;
2257;SDS011;1136;51.574;7.706;2023-07-29T10:33:02;3.63;;;1.60;;
2257;SDS011;1136;51.574;7.706;2023-07-29T10:36:14;1.70;;;1.60;;
2257;SDS011;1136;51.574;7.706;2023-07-29T10:39:21;1.60;;;1.50;;
2257;SDS011;1136;51.574;7.706;2023-07-29T10:42:31;1.93;;;1.83;;
2257;SDS011;1136;51.574;7.706;2023-07-29T10:45:39;2.00;;;1.90;;
2257;SDS011;1136;51.574;7.706;2023-07-29T10:51:57;2.57;;;2.07;;
2257;SDS011;1136;51.574;7.706;2023-07-29T10:55:04;2.10;;;2.00;;
2257;SDS011;1136;51.574;7.706;2023-07-29T10:58:30;1.97;;;1.87;;
2257;SDS011;1136;51.574;7.706;2023-07-29T11:01:39;3.00;;;2.80;;
2257;SDS011;1136;51.574;7.706;2023-07-29T11:04:47;2.23;;;1.63;;
2257;SDS011;1136;51.574;7.706;2023-07-29T11:07:56;1.83;;;1.73;;
2257;SDS011;1136;51.574;7.706;2023-07-29T11:11:05;2.00;;;1.90;;
2257;SDS011;1136;51.574;7.706;2023-07-29T11:14:13;2.13;;;2.03;;
2257;SDS011;1136;51.574;7.706;2023-07-29T11:17:21;2.93;;;2.70;;
2257;SDS011;1136;51.574;7.706;2023-07-29T11:20:29;11.87;;;2.87;;
2257;SDS011;1136;51.574;7.706;2023-07-29T11:23:37;2.27;;;2.17;;
2257;SDS011;1136;51.574;7.706;2023-07-29T11:26:48;1.80;;;1.70;;
2257;SDS011;1136;51.574;7.706;2023-07-29T11:30:02;2.90;;;1.77;;
2257;SDS011;1136;51.574;7.706;2023-07-29T11:33:12;1.83;;;1.73;;
2257;SDS011;1136;51.574;7.706;2023-07-29T11:36:19;1.70;;;1.60;;
2257;SDS011;1136;51.574;7.706;2023-07-29T11:39:26;2.00;;;1.90;;
2257;SDS011;1136;51.574;7.706;2023-07-29T11:42:34;2.20;;;2.10;;
2257;SDS011;1136;51.574;7.706;2023-07-29T11:45:41;2.30;;;1.80;;
2257;SDS011;1136;51.574;7.706;2023-07-29T11:48:58;1.77;;;1.67;;
2257;SDS011;1136;51.574;7.706;2023-07-29T11:52:08;1.90;;;1.80;;
2257;SDS011;1136;51.574;7.706;2023-07-29T11:55:15;1.87;;;1.50;;
2257;SDS011;1136;51.574;7.706;2023-07-29T11:58:23;1.80;;;1.70;;
2257;SDS011;1136;51.574;7.706;2023-07-29T12:01:30;1.50;;;1.40;;
2257;SDS011;1136;51.574;7.706;2023-07-29T12:04:38;2.00;;;1.90;;
2257;SDS011;1136;51.574;7.706;2023-07-29T12:07:46;2.00;;;1.90;;
2257;SDS011;1136;51.574;7.706;2023-07-29T12:10:53;1.90;;;1.80;;
2257;SDS011;1136;51.574;7.706;2023-07-29T12:14:01;1.93;;;1.83;;
2257;SDS011;1136;51.574;7.706;2023-07-29T12:17:08;1.70;;;1.60;;
2257;SDS011;1136;51.574;7.706;2023-07-29T12:20:16;2.70;;;2.60;;
2257;SDS011;1136;51.574;7.706;2023-07-29T12:23:27;2.30;;;2.20;;
2257;SDS011;1136;51.574;7.706;2023-07-29T12:26:35;2.60;;;2.30;;
2257;SDS011;1136;51.574;7.706;2023-07-29T12:29:44;2.17;;;2.07;;
2257;SDS011;1136;51.574;7.706;2023-07-29T12:32:53;3.80;;;2.30;;
2257;SDS011;1136;51.574;7.706;2023-07-29T12:36:00;2.07;;;1.97;;
2257;SDS011;1136;51.574;7.706;2023-07-29T12:39:15;2.30;;;2.10;;
2257;SDS011;1136;51.574;7.706;2023-07-29T12:42:24;2.27;;;1.77;;
2257;SDS011;1136;51.574;7.706;2023-07-29T12:45:35;5.10;;;2.73;;
2257;SDS011;1136;51.574;7.706;2023-07-29T12:48:42;3.37;;;2.30;;
2257;SDS011;1136;51.574;7.706;2023-07-29T12:51:50;3.10;;;1.80;;
2257;SDS011;1136;51.574;7.706;2023-07-29T12:54:57;2.10;;;2.00;;
2257;SDS011;1136;51.574;7.706;2023-07-29T12:58:04;3.03;;;2.83;;
2257;SDS011;1136;51.574;7.706;2023-07-29T13:01:11;4.10;;;1.73;;
2257;SDS011;1136;51.574;7.706;2023-07-29T13:04:24;1.50;;;1.40;;
2257;SDS011;1136;51.574;7.706;2023-07-29T13:07:31;1.80;;;1.70;;
2257;SDS011;1136;51.574;7.706;2023-07-29T13:10:38;3.20;;;2.00;;
2257;SDS011;1136;51.574;7.706;2023-07-29T13:13:45;1.50;;;1.40;;
2257;SDS011;1136;51.574;7.706;2023-07-29T13:16:52;1.80;;;1.70;;
2257;SDS011;1136;51.574;7.706;2023-07-29T13:20:00;2.40;;;1.90;;
2257;SDS011;1136;51.574;7.706;2023-07-29T13:23:07;2.03;;;1.70;;
2257;SDS011;1136;51.574;7.706;2023-07-29T13:26:14;1.70;;;1.60;;
2257;SDS011;1136;51.574;7.706;2023-07-29T13:29:22;2.20;;;2.10;;
2257;SDS011;1136;51.574;7.706;2023-07-29T13:32:29;2.07;;;1.97;;
2257;SDS011;1136;51.574;7.706;2023-07-29T13:35:36;4.17;;;2.40;;
2257;SDS011;1136;51.574;7.706;2023-07-29T13:38:43;1.83;;;1.73;;
2257;SDS011;1136;51.574;7.706;2023-07-29T13:41:51;1.97;;;1.80;;
2257;SDS011;1136;51.574;7.706;2023-07-29T13:44:58;2.57;;;1.80;;
2257;SDS011;1136;51.574;7.706;2023-07-29T13:48:05;5.37;;;2.17;;
2257;SDS011;1136;51.574;7.706;2023-07-29T13:51:13;2.50;;;2.30;;
2257;SDS011;1136;51.574;7.706;2023-07-29T13:54:20;2.53;;;2.30;;
2257;SDS011;1136;51.574;7.706;2023-07-29T13:57:28;4.43;;;1.87;;
2257;SDS011;1136;51.574;7.706;2023-07-29T14:00:36;2.07;;;1.97;;
2257;SDS011;1136;51.574;7.706;2023-07-29T14:03:43;2.17;;;1.97;;
2257;SDS011;1136;51.574;7.706;2023-07-29T14:06:51;2.47;;;1.93;;
2257;SDS011;1136;51.574;7.706;2023-07-29T14:10:05;2.80;;;2.03;;
2257;SDS011;1136;51.574;7.706;2023-07-29T14:13:13;7.87;;;2.23;;
2257;SDS011;1136;51.574;7.706;2023-07-29T14:16:20;1.80;;;1.70;;
2257;SDS011;1136;51.574;7.706;2023-07-29T14:19:27;2.20;;;2.10;;
2257;SDS011;1136;51.574;7.706;2023-07-29T14:22:35;2.27;;;1.90;;
2257;SDS011;1136;51.574;7.706;2023-07-29T14:25:42;2.97;;;2.13;;
2257;SDS011;1136;51.574;7.706;2023-07-29T14:28:50;3.80;;;2.17;;
2257;SDS011;1136;51.574;7.706;2023-07-29T14:31:57;2.23;;;2.13;;
2257;SDS011;1136;51.574;7.706;2023-07-29T14:35:04;3.27;;;2.00;;
2257;SDS011;1136;51.574;7.706;2023-07-29T14:38:12;2.70;;;2.50;;
2257;SDS011;1136;51.574;7.706;2023-07-29T14:41:19;2.33;;;2.20;;
2257;SDS011;1136;51.574;7.706;2023-07-29T14:44:26;2.00;;;1.90;;
2257;SDS011;1136;51.574;7.706;2023-07-29T14:47:33;2.70;;;2.20;;
2257;SDS011;1136;51.574;7.706;2023-07-29T14:50:42;2.80;;;2.60;;
2257;SDS011;1136;51.574;7.706;2023-07-29T14:53:50;3.20;;;3.00;;
2257;SDS011;1136;51.574;7.706;2023-07-29T14:56:57;3.60;;;3.30;;
2257;SDS011;1136;51.574;7.706;2023-07-29T15:00:05;3.50;;;3.10;;
2257;SDS011;1136;51.574;7.706;2023-07-29T15:03:13;3.40;;;3.17;;
2257;SDS011;1136;51.574;7.706;2023-07-29T15:06:20;3.40;;;3.00;;
2257;SDS011;1136;51.574;7.706;2023-07-29T15:09:27;5.27;;;3.53;;
2257;SDS011;1136;51.574;7.706;2023-07-29T15:12:35;3.57;;;2.30;;
2257;SDS011;1136;51.574;7.706;2023-07-29T15:15:42;8.83;;;2.50;;
2257;SDS011;1136;51.574;7.706;2023-07-29T15:18:51;3.50;;;1.80;;
2257;SDS011;1136;51.574;7.706;2023-07-29T15:21:58;2.93;;;1.90;;
2257;SDS011;1136;51.574;7.706;2023-07-29T15:25:07;5.53;;;2.70;;
2257;SDS011;1136;51.574;7.706;2023-07-29T15:28:16;2.13;;;1.67;;
2257;SDS011;1136;51.574;7.706;2023-07-29T15:31:23;4.57;;;1.83;;
2257;SDS011;1136;51.574;7.706;2023-07-29T15:34:30;1.80;;;1.70;;
2257;SDS011;1136;51.574;7.706;2023-07-29T15:37:38;1.30;;;1.20;;
2257;SDS011;1136;51.574;7.706;2023-07-29T15:40:46;1.57;;;1.47;;
2257;SDS011;1136;51.574;7.706;2023-07-29T15:43:55;1.70;;;1.60;;
2257;SDS011;1136;51.574;7.706;2023-07-29T15:47:03;1.67;;;1.57;;
2257;SDS011;1136;51.574;7.706;2023-07-29T15:50:10;1.80;;;1.70;;
2257;SDS011;1136;51.574;7.706;2023-07-29T15:53:18;2.00;;;1.80;;
2257;SDS011;1136;51.574;7.706;2023-07-29T15:56:27;1.67;;;1.57;;
2257;SDS011;1136;51.574;7.706;2023-07-29T15:59:37;2.87;;;2.23;;
2257;SDS011;1136;51.574;7.706;2023-07-29T16:02:44;6.00;;;2.13;;
2257;SDS011;1136;51.574;7.706;2023-07-29T16:05:52;1.80;;;1.70;;
2257;SDS011;1136;51.574;7.706;2023-07-29T16:08:59;2.83;;;1.67;;
2257;SDS011;1136;51.574;7.706;2023-07-29T16:12:12;1.73;;;1.63;;
2257;SDS011;1136;51.574;7.706;2023-07-29T16:15:20;1.63;;;1.53;;
2257;SDS011;1136;51.574;7.706;2023-07-29T16:18:27;2.47;;;1.80;;
2257;SDS011;1136;51.574;7.706;2023-07-29T16:21:35;3.77;;;2.30;;
2257;SDS011;1136;51.574;7.706;2023-07-29T16:24:42;1.97;;;1.87;;
2257;SDS011;1136;51.574;7.706;2023-07-29T16:27:50;1.77;;;1.67;;
2257;SDS011;1136;51.574;7.706;2023-07-29T16:30:57;1.83;;;1.60;;
2257;SDS011;1136;51.574;7.706;2023-07-29T16:34:04;2.03;;;1.40;;
2257;SDS011;1136;51.574;7.706;2023-07-29T16:37:11;2.00;;;1.90;;
2257;SDS011;1136;51.574;7.706;2023-07-29T16:40:18;3.17;;;1.60;;
2257;SDS011;1136;51.574;7.706;2023-07-29T16:43:26;1.70;;;1.60;;
2257;SDS011;1136;51.574;7.706;2023-07-29T16:46:33;1.70;;;1.60;;
2257;SDS011;1136;51.574;7.706;2023-07-29T16:49:40;1.60;;;1.50;;
2257;SDS011;1136;51.574;7.706;2023-07-29T16:52:47;2.07;;;1.87;;
2257;SDS011;1136;51.574;7.706;2023-07-29T16:56:03;1.50;;;1.40;;
2257;SDS011;1136;51.574;7.706;2023-07-29T16:59:10;1.83;;;1.73;;
2257;SDS011;1136;51.574;7.706;2023-07-29T17:02:18;1.70;;;1.60;;
2257;SDS011;1136;51.574;7.706;2023-07-29T17:05:25;1.87;;;1.60;;
2257;SDS011;1136;51.574;7.706;2023-07-29T17:08:32;5.20;;;1.80;;
2257;SDS011;1136;51.574;7.706;2023-07-29T17:11:40;1.90;;;1.80;;
2257;SDS011;1136;51.574;7.706;2023-07-29T17:14:47;1.80;;;1.70;;
2257;SDS011;1136;51.574;7.706;2023-07-29T17:17:54;1.80;;;1.70;;
2257;SDS011;1136;51.574;7.706;2023-07-29T17:21:03;1.97;;;1.87;;
2257;SDS011;1136;51.574;7.706;2023-07-29T17:24:10;1.83;;;1.73;;
2257;SDS011;1136;51.574;7.706;2023-07-29T17:27:18;2.20;;;2.10;;
2257;SDS011;1136;51.574;7.706;2023-07-29T17:30:25;2.53;;;2.33;;
2257;SDS011;1136;51.574;7.706;2023-07-29T17:33:34;4.50;;;4.20;;
2257;SDS011;1136;51.574;7.706;2023-07-29T17:36:42;8.30;;;7.60;;
2257;SDS011;1136;51.574;7.706;2023-07-29T17:39:49;5.13;;;4.20;;
2257;SDS011;1136;51.574;7.706;2023-07-29T17:42:56;3.77;;;3.57;;
2257;SDS011;1136;51.574;7.706;2023-07-29T17:46:03;4.03;;;3.10;;
2257;SDS011;1136;51.574;7.706;2023-07-29T17:49:10;3.10;;;2.90;;
2257;SDS011;1136;51.574;7.706;2023-07-29T17:52:18;2.90;;;2.70;;
2257;SDS011;1136;51.574;7.706;2023-07-29T17:55:25;3.20;;;3.00;;
2257;SDS011;1136;51.574;7.706;2023-07-29T17:58:32;2.97;;;2.70;;
2257;SDS011;1136;51.574;7.706;2023-07-29T18:01:39;2.80;;;2.60;;
2257;SDS011;1136;51.574;7.706;2023-07-29T18:04:47;3.07;;;2.87;;
2257;SDS011;1136;51.574;7.706;2023-07-29T18:07:54;6.60;;;3.23;;
2257;SDS011;1136;51.574;7.706;2023-07-29T18:11:01;3.27;;;2.87;;
2257;SDS011;1136;51.574;7.706;2023-07-29T18:14:09;2.80;;;2.57;;
2257;SDS011;1136;51.574;7.706;2023-07-29T18:17:16;2.87;;;2.67;;
2257;SDS011;1136;51.574;7.706;2023-07-29T18:20:23;3.10;;;2.90;;
2257;SDS011;1136;51.574;7.706;2023-07-29T18:23:30;3.10;;;2.90;;
2257;SDS011;1136;51.574;7.706;2023-07-29T18:26:38;3.77;;;2.90;;
2257;SDS011;1136;51.574;7.706;2023-07-29T18:29:45;2.83;;;2.73;;
2257;SDS011;1136;51.574;7.706;2023-07-29T18:32:52;2.60;;;2.50;;
2257;SDS011;1136;51.574;7.706;2023-07-29T18:36:00;2.93;;;2.73;;
2257;SDS011;1136;51.574;7.706;2023-07-29T18:39:10;5.33;;;2.73;;
2257;SDS011;1136;51.574;7.706;2023-07-29T18:42:18;3.33;;;3.13;;
2257;SDS011;1136;51.574;7.706;2023-07-29T18:45:25;2.90;;;2.70;;
2257;SDS011;1136;51.574;7.706;2023-07-29T18:48:32;3.70;;;2.97;;
2257;SDS011;1136;51.574;7.706;2023-07-29T18:51:39;4.30;;;3.83;;
2257;SDS011;1136;51.574;7.706;2023-07-29T18:54:47;3.10;;;2.80;;
2257;SDS011;1136;51.574;7.706;2023-07-29T18:57:55;3.47;;;3.27;;
2257;SDS011;1136;51.574;7.706;2023-07-29T19:01:05;6.03;;;3.23;;
2257;SDS011;1136;51.574;7.706;2023-07-29T19:04:12;3.77;;;3.43;;
2257;SDS011;1136;51.574;7.706;2023-07-29T19:07:20;3.40;;;3.20;;
2257;SDS011;1136;51.574;7.706;2023-07-29T19:10:28;3.27;;;2.97;;
2257;SDS011;1136;51.574;7.706;2023-07-29T19:13:35;7.77;;;3.50;;
2257;SDS011;1136;51.574;7.706;2023-07-29T19:16:42;3.37;;;3.07;;
2257;SDS011;1136;51.574;7.706;2023-07-29T19:19:50;3.40;;;2.93;;
2257;SDS011;1136;51.574;7.706;2023-07-29T19:22:57;3.03;;;2.83;;
2257;SDS011;1136;51.574;7.706;2023-07-29T19:26:04;3.30;;;3.10;;
2257;SDS011;1136;51.574;7.706;2023-07-29T19:29:11;4.10;;;3.87;;
2257;SDS011;1136;51.574;7.706;2023-07-29T19:32:21;4.83;;;3.20;;
2257;SDS011;1136;51.574;7.706;2023-07-29T19:35:29;3.40;;;3.10;;
2257;SDS011;1136;51.574;7.706;2023-07-29T19:38:37;3.67;;;3.37;;